sensor_id;sensor_type;location;lat;lon;timestamp;P1;durP1;ratioP1;P2;durP2;ratioP2
36585;SDS011;22591;48.314;11.562;2023-09-18T00:00:43;18.40;;;16.70;;
36585;SDS011;22591;48.314;11.562;2023-09-18T00:03:09;16.92;;;15.23;;
36585;SDS011;22591;48.314;11.562;2023-09-18T00:05:35;16.95;;;15.38;;
36585;SDS011;22591;48.314;11.562;2023-09-18T00:08:00;15.85;;;14.50;;
36585;SDS011;22591;48.314;11.562;2023-09-18T00:10:29;16.00;;;14.35;;
36585;SDS011;22591;48.314;11.562;2023-09-18T00:12:55;16.30;;;14.82;;
36585;SDS011;22591;48.314;11.562;2023-09-18T00:15:22;16.02;;;14.52;;
36585;SDS011;22591;48.314;11.562;2023-09-18T00:17:47;14.65;;;13.45;;
36585;SDS011;22591;48.314;11.562;2023-09-18T00:20:13;15.93;;;14.52;;
36585;SDS011;22591;48.314;11.562;2023-09-18T00:22:42;15.35;;;14.10;;
36585;SDS011;22591;48.314;11.562;2023-09-18T00:25:07;15.32;;;13.95;;
36585;SDS011;22591;48.314;11.562;2023-09-18T00:27:33;15.35;;;14.05;;
36585;SDS011;22591;48.314;11.562;2023-09-18T00:30:01;17.17;;;15.57;;
36585;SDS011;22591;48.314;11.562;2023-09-18T00:32:27;15.82;;;14.52;;
36585;SDS011;22591;48.314;11.562;2023-09-18T00:34:53;15.30;;;13.95;;
36585;SDS011;22591;48.314;11.562;2023-09-18T00:37:18;15.70;;;14.27;;
36585;SDS011;22591;48.314;11.562;2023-09-18T00:39:44;19.45;;;17.75;;
36585;SDS011;22591;48.314;11.562;2023-09-18T00:42:09;16.88;;;15.30;;
36585;SDS011;22591;48.314;11.562;2023-09-18T00:44:38;14.77;;;13.40;;
36585;SDS011;22591;48.314;11.562;2023-09-18T00:47:06;16.88;;;15.38;;
36585;SDS011;22591;48.314;11.562;2023-09-18T00:49:33;16.67;;;15.15;;
36585;SDS011;22591;48.314;11.562;2023-09-18T00:52:01;15.40;;;14.07;;
36585;SDS011;22591;48.314;11.562;2023-09-18T00:54:27;20.42;;;18.60;;
36585;SDS011;22591;48.314;11.562;2023-09-18T00:56:53;17.50;;;15.95;;
36585;SDS011;22591;48.314;11.562;2023-09-18T00:59:20;18.58;;;16.80;;
36585;SDS011;22591;48.314;11.562;2023-09-18T01:01:46;17.13;;;15.73;;
36585;SDS011;22591;48.314;11.562;2023-09-18T01:04:16;17.38;;;15.77;;
36585;SDS011;22591;48.314;11.562;2023-09-18T01:06:42;17.88;;;16.10;;
36585;SDS011;22591;48.314;11.562;2023-09-18T01:09:07;19.00;;;17.25;;
36585;SDS011;22591;48.314;11.562;2023-09-18T01:14:25;21.70;;;19.80;;
36585;SDS011;22591;48.314;11.562;2023-09-18T01:16:59;19.80;;;17.88;;
36585;SDS011;22591;48.314;11.562;2023-09-18T01:19:35;18.60;;;16.90;;
36585;SDS011;22591;48.314;11.562;2023-09-18T01:22:03;18.45;;;16.85;;
36585;SDS011;22591;48.314;11.562;2023-09-18T01:24:29;16.73;;;15.18;;
36585;SDS011;22591;48.314;11.562;2023-09-18T01:26:56;18.50;;;16.80;;
36585;SDS011;22591;48.314;11.562;2023-09-18T01:29:21;17.98;;;16.27;;
36585;SDS011;22591;48.314;11.562;2023-09-18T01:31:47;23.45;;;21.15;;
36585;SDS011;22591;48.314;11.562;2023-09-18T01:34:14;23.17;;;20.77;;
36585;SDS011;22591;48.314;11.562;2023-09-18T01:36:41;20.35;;;18.42;;
36585;SDS011;22591;48.314;11.562;2023-09-18T01:39:09;21.70;;;19.63;;
36585;SDS011;22591;48.314;11.562;2023-09-18T01:41:36;29.30;;;26.23;;
36585;SDS011;22591;48.314;11.562;2023-09-18T01:44:03;30.52;;;27.33;;
36585;SDS011;22591;48.314;11.562;2023-09-18T01:46:29;25.77;;;23.27;;
36585;SDS011;22591;48.314;11.562;2023-09-18T01:48:57;25.13;;;22.42;;
36585;SDS011;22591;48.314;11.562;2023-09-18T01:51:23;22.25;;;19.88;;
36585;SDS011;22591;48.314;11.562;2023-09-18T01:53:49;23.30;;;20.85;;
36585;SDS011;22591;48.314;11.562;2023-09-18T01:56:15;22.58;;;20.25;;
36585;SDS011;22591;48.314;11.562;2023-09-18T01:58:40;21.33;;;19.33;;
36585;SDS011;22591;48.314;11.562;2023-09-18T02:01:06;22.85;;;19.17;;
36585;SDS011;22591;48.314;11.562;2023-09-18T02:03:31;23.65;;;21.15;;
36585;SDS011;22591;48.314;11.562;2023-09-18T02:05:57;27.98;;;21.95;;
36585;SDS011;22591;48.314;11.562;2023-09-18T02:08:23;29.17;;;26.20;;
36585;SDS011;22591;48.314;11.562;2023-09-18T02:10:48;23.23;;;21.02;;
36585;SDS011;22591;48.314;11.562;2023-09-18T02:13:14;25.85;;;23.45;;
36585;SDS011;22591;48.314;11.562;2023-09-18T02:15:39;22.15;;;19.95;;
36585;SDS011;22591;48.314;11.562;2023-09-18T02:18:05;20.83;;;18.83;;
36585;SDS011;22591;48.314;11.562;2023-09-18T02:20:30;21.23;;;19.23;;
36585;SDS011;22591;48.314;11.562;2023-09-18T02:22:56;20.92;;;18.83;;
36585;SDS011;22591;48.314;11.562;2023-09-18T02:25:21;17.15;;;15.18;;
36585;SDS011;22591;48.314;11.562;2023-09-18T02:27:47;18.77;;;16.45;;
36585;SDS011;22591;48.314;11.562;2023-09-18T02:30:12;17.27;;;15.77;;
36585;SDS011;22591;48.314;11.562;2023-09-18T02:32:38;18.23;;;16.55;;
36585;SDS011;22591;48.314;11.562;2023-09-18T02:35:04;19.20;;;17.40;;
36585;SDS011;22591;48.314;11.562;2023-09-18T02:37:32;20.45;;;18.33;;
36585;SDS011;22591;48.314;11.562;2023-09-18T02:39:57;21.30;;;19.17;;
36585;SDS011;22591;48.314;11.562;2023-09-18T02:42:23;18.15;;;16.42;;
36585;SDS011;22591;48.314;11.562;2023-09-18T02:44:48;20.02;;;18.13;;
36585;SDS011;22591;48.314;11.562;2023-09-18T02:47:14;18.60;;;16.85;;
36585;SDS011;22591;48.314;11.562;2023-09-18T02:49:39;16.55;;;15.15;;
36585;SDS011;22591;48.314;11.562;2023-09-18T02:52:05;20.15;;;17.75;;
36585;SDS011;22591;48.314;11.562;2023-09-18T02:54:30;19.30;;;17.42;;
36585;SDS011;22591;48.314;11.562;2023-09-18T02:56:56;19.92;;;18.13;;
36585;SDS011;22591;48.314;11.562;2023-09-18T02:59:22;23.05;;;20.75;;
36585;SDS011;22591;48.314;11.562;2023-09-18T03:01:47;27.15;;;24.35;;
36585;SDS011;22591;48.314;11.562;2023-09-18T03:04:13;33.58;;;27.90;;
36585;SDS011;22591;48.314;11.562;2023-09-18T03:06:39;27.42;;;24.77;;
36585;SDS011;22591;48.314;11.562;2023-09-18T03:09:06;24.88;;;22.30;;
36585;SDS011;22591;48.314;11.562;2023-09-18T03:11:31;24.00;;;21.15;;
36585;SDS011;22591;48.314;11.562;2023-09-18T03:13:57;24.45;;;22.02;;
36585;SDS011;22591;48.314;11.562;2023-09-18T03:16:22;26.55;;;23.77;;
36585;SDS011;22591;48.314;11.562;2023-09-18T03:18:48;25.08;;;22.38;;
36585;SDS011;22591;48.314;11.562;2023-09-18T03:21:14;24.83;;;22.23;;
36585;SDS011;22591;48.314;11.562;2023-09-18T03:23:39;23.63;;;20.98;;
36585;SDS011;22591;48.314;11.562;2023-09-18T03:26:05;25.60;;;22.95;;
36585;SDS011;22591;48.314;11.562;2023-09-18T03:28:30;22.80;;;20.50;;
36585;SDS011;22591;48.314;11.562;2023-09-18T03:30:57;22.48;;;20.27;;
36585;SDS011;22591;48.314;11.562;2023-09-18T03:33:23;25.23;;;22.65;;
36585;SDS011;22591;48.314;11.562;2023-09-18T03:35:50;25.52;;;22.92;;
36585;SDS011;22591;48.314;11.562;2023-09-18T03:38:19;28.63;;;24.70;;
36585;SDS011;22591;48.314;11.562;2023-09-18T03:40:45;24.98;;;22.25;;
36585;SDS011;22591;48.314;11.562;2023-09-18T03:43:11;26.13;;;23.42;;
36585;SDS011;22591;48.314;11.562;2023-09-18T03:45:37;23.92;;;21.63;;
36585;SDS011;22591;48.314;11.562;2023-09-18T03:48:04;21.67;;;19.52;;
36585;SDS011;22591;48.314;11.562;2023-09-18T03:50:29;22.42;;;20.02;;
36585;SDS011;22591;48.314;11.562;2023-09-18T03:52:55;19.42;;;17.52;;
36585;SDS011;22591;48.314;11.562;2023-09-18T03:55:20;18.02;;;16.17;;
36585;SDS011;22591;48.314;11.562;2023-09-18T03:57:46;18.30;;;16.60;;
36585;SDS011;22591;48.314;11.562;2023-09-18T04:00:14;17.35;;;15.70;;
36585;SDS011;22591;48.314;11.562;2023-09-18T04:02:41;16.05;;;14.65;;
36585;SDS011;22591;48.314;11.562;2023-09-18T04:05:06;14.82;;;13.43;;
36585;SDS011;22591;48.314;11.562;2023-09-18T04:07:34;14.40;;;13.20;;
36585;SDS011;22591;48.314;11.562;2023-09-18T04:10:00;14.95;;;13.45;;
36585;SDS011;22591;48.314;11.562;2023-09-18T04:12:27;14.77;;;13.35;;
36585;SDS011;22591;48.314;11.562;2023-09-18T04:14:54;12.88;;;11.77;;
36585;SDS011;22591;48.314;11.562;2023-09-18T04:17:21;12.07;;;11.15;;
36585;SDS011;22591;48.314;11.562;2023-09-18T04:19:47;12.90;;;11.80;;
36585;SDS011;22591;48.314;11.562;2023-09-18T04:22:13;11.93;;;10.85;;
36585;SDS011;22591;48.314;11.562;2023-09-18T04:24:40;13.80;;;12.65;;
36585;SDS011;22591;48.314;11.562;2023-09-18T04:27:06;14.52;;;13.10;;
36585;SDS011;22591;48.314;11.562;2023-09-18T04:29:33;15.07;;;13.30;;
36585;SDS011;22591;48.314;11.562;2023-09-18T04:32:02;15.88;;;14.27;;
36585;SDS011;22591;48.314;11.562;2023-09-18T04:34:29;14.30;;;13.07;;
36585;SDS011;22591;48.314;11.562;2023-09-18T04:36:56;16.13;;;14.52;;
36585;SDS011;22591;48.314;11.562;2023-09-18T04:39:21;20.42;;;13.50;;
36585;SDS011;22591;48.314;11.562;2023-09-18T04:41:48;13.30;;;12.20;;
36585;SDS011;22591;48.314;11.562;2023-09-18T04:44:14;12.82;;;11.65;;
36585;SDS011;22591;48.314;11.562;2023-09-18T04:46:40;14.98;;;13.38;;
36585;SDS011;22591;48.314;11.562;2023-09-18T04:49:07;13.82;;;12.40;;
36585;SDS011;22591;48.314;11.562;2023-09-18T04:51:34;15.52;;;14.00;;
36585;SDS011;22591;48.314;11.562;2023-09-18T04:54:01;17.98;;;16.08;;
36585;SDS011;22591;48.314;11.562;2023-09-18T04:56:28;15.93;;;14.38;;
36585;SDS011;22591;48.314;11.562;2023-09-18T04:58:55;18.85;;;17.10;;
36585;SDS011;22591;48.314;11.562;2023-09-18T05:01:23;19.27;;;16.73;;
36585;SDS011;22591;48.314;11.562;2023-09-18T05:03:49;19.38;;;17.38;;
36585;SDS011;22591;48.314;11.562;2023-09-18T05:06:16;22.30;;;19.90;;
36585;SDS011;22591;48.314;11.562;2023-09-18T05:08:43;23.98;;;21.55;;
36585;SDS011;22591;48.314;11.562;2023-09-18T05:11:09;21.80;;;19.55;;
36585;SDS011;22591;48.314;11.562;2023-09-18T05:13:35;23.65;;;21.02;;
36585;SDS011;22591;48.314;11.562;2023-09-18T05:16:02;24.52;;;22.02;;
36585;SDS011;22591;48.314;11.562;2023-09-18T05:18:28;17.67;;;15.93;;
36585;SDS011;22591;48.314;11.562;2023-09-18T05:20:55;23.75;;;21.50;;
36585;SDS011;22591;48.314;11.562;2023-09-18T05:23:22;18.58;;;16.60;;
36585;SDS011;22591;48.314;11.562;2023-09-18T05:25:49;17.25;;;15.65;;
36585;SDS011;22591;48.314;11.562;2023-09-18T05:28:14;16.08;;;14.65;;
36585;SDS011;22591;48.314;11.562;2023-09-18T05:30:41;16.35;;;14.68;;
36585;SDS011;22591;48.314;11.562;2023-09-18T05:33:07;14.13;;;12.93;;
36585;SDS011;22591;48.314;11.562;2023-09-18T05:35:35;14.23;;;12.88;;
36585;SDS011;22591;48.314;11.562;2023-09-18T05:38:05;15.40;;;14.02;;
36585;SDS011;22591;48.314;11.562;2023-09-18T05:40:33;13.82;;;12.63;;
36585;SDS011;22591;48.314;11.562;2023-09-18T05:42:59;13.23;;;12.13;;
36585;SDS011;22591;48.314;11.562;2023-09-18T05:45:26;13.00;;;11.82;;
36585;SDS011;22591;48.314;11.562;2023-09-18T05:47:54;12.20;;;11.05;;
36585;SDS011;22591;48.314;11.562;2023-09-18T05:50:26;11.90;;;10.98;;
36585;SDS011;22591;48.314;11.562;2023-09-18T05:52:56;12.80;;;11.70;;
36585;SDS011;22591;48.314;11.562;2023-09-18T05:55:26;12.93;;;11.67;;
36585;SDS011;22591;48.314;11.562;2023-09-18T05:57:54;12.13;;;11.15;;
36585;SDS011;22591;48.314;11.562;2023-09-18T06:00:20;11.07;;;10.25;;
36585;SDS011;22591;48.314;11.562;2023-09-18T06:02:47;10.38;;;9.57;;
36585;SDS011;22591;48.314;11.562;2023-09-18T06:05:13;10.70;;;9.80;;
36585;SDS011;22591;48.314;11.562;2023-09-18T06:07:42;10.25;;;9.45;;
36585;SDS011;22591;48.314;11.562;2023-09-18T06:10:07;10.60;;;9.57;;
36585;SDS011;22591;48.314;11.562;2023-09-18T06:12:34;10.93;;;7.63;;
36585;SDS011;22591;48.314;11.562;2023-09-18T06:15:02;8.20;;;7.60;;
36585;SDS011;22591;48.314;11.562;2023-09-18T06:17:29;8.02;;;7.43;;
36585;SDS011;22591;48.314;11.562;2023-09-18T06:19:55;8.43;;;7.72;;
36585;SDS011;22591;48.314;11.562;2023-09-18T06:22:21;9.43;;;7.82;;
36585;SDS011;22591;48.314;11.562;2023-09-18T06:24:48;9.32;;;8.50;;
36585;SDS011;22591;48.314;11.562;2023-09-18T06:27:13;10.23;;;9.00;;
36585;SDS011;22591;48.314;11.562;2023-09-18T06:29:40;10.93;;;9.50;;
36585;SDS011;22591;48.314;11.562;2023-09-18T06:32:07;8.57;;;7.97;;
36585;SDS011;22591;48.314;11.562;2023-09-18T06:34:34;9.27;;;8.35;;
36585;SDS011;22591;48.314;11.562;2023-09-18T06:37:01;10.90;;;8.20;;
36585;SDS011;22591;48.314;11.562;2023-09-18T06:39:29;10.02;;;9.13;;
36585;SDS011;22591;48.314;11.562;2023-09-18T06:41:56;10.93;;;9.90;;
36585;SDS011;22591;48.314;11.562;2023-09-18T06:44:22;12.48;;;11.18;;
36585;SDS011;22591;48.314;11.562;2023-09-18T06:46:48;11.77;;;10.68;;
36585;SDS011;22591;48.314;11.562;2023-09-18T06:49:14;10.07;;;9.25;;
36585;SDS011;22591;48.314;11.562;2023-09-18T06:51:40;9.95;;;9.05;;
36585;SDS011;22591;48.314;11.562;2023-09-18T06:54:06;8.85;;;8.25;;
36585;SDS011;22591;48.314;11.562;2023-09-18T06:56:33;9.50;;;8.73;;
36585;SDS011;22591;48.314;11.562;2023-09-18T06:59:00;10.52;;;9.63;;
36585;SDS011;22591;48.314;11.562;2023-09-18T07:01:26;11.18;;;9.45;;
36585;SDS011;22591;48.314;11.562;2023-09-18T07:03:54;9.85;;;9.05;;
36585;SDS011;22591;48.314;11.562;2023-09-18T07:06:22;9.18;;;8.50;;
36585;SDS011;22591;48.314;11.562;2023-09-18T07:08:48;10.68;;;9.13;;
36585;SDS011;22591;48.314;11.562;2023-09-18T07:11:17;10.80;;;9.93;;
36585;SDS011;22591;48.314;11.562;2023-09-18T07:13:44;10.10;;;9.20;;
36585;SDS011;22591;48.314;11.562;2023-09-18T07:16:09;9.55;;;8.75;;
36585;SDS011;22591;48.314;11.562;2023-09-18T07:18:36;9.98;;;8.93;;
36585;SDS011;22591;48.314;11.562;2023-09-18T07:21:03;8.10;;;7.38;;
36585;SDS011;22591;48.314;11.562;2023-09-18T07:23:29;8.32;;;7.50;;
36585;SDS011;22591;48.314;11.562;2023-09-18T07:25:56;7.75;;;7.05;;
36585;SDS011;22591;48.314;11.562;2023-09-18T07:28:23;7.90;;;7.18;;
36585;SDS011;22591;48.314;11.562;2023-09-18T07:30:49;7.00;;;6.40;;
36585;SDS011;22591;48.314;11.562;2023-09-18T07:33:15;7.93;;;7.32;;
36585;SDS011;22591;48.314;11.562;2023-09-18T07:35:46;9.23;;;6.97;;
36585;SDS011;22591;48.314;11.562;2023-09-18T07:38:13;10.35;;;7.20;;
36585;SDS011;22591;48.314;11.562;2023-09-18T07:40:39;7.75;;;6.97;;
36585;SDS011;22591;48.314;11.562;2023-09-18T07:43:04;7.55;;;6.95;;
36585;SDS011;22591;48.314;11.562;2023-09-18T07:45:30;10.60;;;7.25;;
36585;SDS011;22591;48.314;11.562;2023-09-18T07:47:57;10.05;;;7.82;;
36585;SDS011;22591;48.314;11.562;2023-09-18T07:50:22;7.82;;;6.97;;
36585;SDS011;22591;48.314;11.562;2023-09-18T07:52:49;8.85;;;7.95;;
36585;SDS011;22591;48.314;11.562;2023-09-18T07:55:15;9.18;;;8.38;;
36585;SDS011;22591;48.314;11.562;2023-09-18T07:57:41;8.20;;;7.38;;
36585;SDS011;22591;48.314;11.562;2023-09-18T08:00:09;9.35;;;7.88;;
36585;SDS011;22591;48.314;11.562;2023-09-18T08:02:39;9.60;;;8.27;;
36585;SDS011;22591;48.314;11.562;2023-09-18T08:05:05;8.25;;;7.65;;
36585;SDS011;22591;48.314;11.562;2023-09-18T08:07:33;7.50;;;7.00;;
36585;SDS011;22591;48.314;11.562;2023-09-18T08:10:02;7.85;;;7.07;;
36585;SDS011;22591;48.314;11.562;2023-09-18T08:12:32;8.20;;;7.28;;
36585;SDS011;22591;48.314;11.562;2023-09-18T08:14:59;9.85;;;7.93;;
36585;SDS011;22591;48.314;11.562;2023-09-18T08:17:25;7.97;;;7.18;;
36585;SDS011;22591;48.314;11.562;2023-09-18T08:19:52;10.48;;;7.72;;
36585;SDS011;22591;48.314;11.562;2023-09-18T08:22:18;7.70;;;7.10;;
36585;SDS011;22591;48.314;11.562;2023-09-18T08:24:47;7.40;;;6.80;;
36585;SDS011;22591;48.314;11.562;2023-09-18T08:27:14;7.05;;;6.38;;
36585;SDS011;22591;48.314;11.562;2023-09-18T08:29:43;7.15;;;5.75;;
36585;SDS011;22591;48.314;11.562;2023-09-18T08:32:09;7.38;;;6.70;;
36585;SDS011;22591;48.314;11.562;2023-09-18T08:34:36;8.25;;;6.32;;
36585;SDS011;22591;48.314;11.562;2023-09-18T08:37:02;5.97;;;5.57;;
36585;SDS011;22591;48.314;11.562;2023-09-18T08:39:28;6.03;;;5.57;;
36585;SDS011;22591;48.314;11.562;2023-09-18T08:42:00;6.85;;;6.25;;
36585;SDS011;22591;48.314;11.562;2023-09-18T08:44:29;6.60;;;6.00;;
36585;SDS011;22591;48.314;11.562;2023-09-18T08:46:56;8.15;;;6.05;;
36585;SDS011;22591;48.314;11.562;2023-09-18T08:49:25;6.68;;;6.07;;
36585;SDS011;22591;48.314;11.562;2023-09-18T08:51:54;8.18;;;5.75;;
36585;SDS011;22591;48.314;11.562;2023-09-18T08:54:22;7.85;;;5.00;;
36585;SDS011;22591;48.314;11.562;2023-09-18T08:56:55;7.10;;;5.78;;
36585;SDS011;22591;48.314;11.562;2023-09-18T08:59:21;7.63;;;5.65;;
36585;SDS011;22591;48.314;11.562;2023-09-18T09:01:48;5.97;;;5.28;;
36585;SDS011;22591;48.314;11.562;2023-09-18T09:04:15;8.63;;;5.80;;
36585;SDS011;22591;48.314;11.562;2023-09-18T09:06:42;5.90;;;5.30;;
36585;SDS011;22591;48.314;11.562;2023-09-18T09:09:08;6.78;;;6.22;;
36585;SDS011;22591;48.314;11.562;2023-09-18T09:11:35;9.30;;;5.90;;
36585;SDS011;22591;48.314;11.562;2023-09-18T09:16:53;6.00;;;5.00;;
36585;SDS011;22591;48.314;11.562;2023-09-18T09:19:27;8.35;;;5.80;;
36585;SDS011;22591;48.314;11.562;2023-09-18T09:22:07;7.43;;;6.65;;
36585;SDS011;22591;48.314;11.562;2023-09-18T09:24:46;7.50;;;5.35;;
36585;SDS011;22591;48.314;11.562;2023-09-18T09:27:11;9.45;;;5.88;;
36585;SDS011;22591;48.314;11.562;2023-09-18T09:29:40;9.35;;;5.80;;
36585;SDS011;22591;48.314;11.562;2023-09-18T09:32:16;9.13;;;5.38;;
36585;SDS011;22591;48.314;11.562;2023-09-18T09:34:44;5.88;;;5.38;;
36585;SDS011;22591;48.314;11.562;2023-09-18T09:37:11;7.15;;;6.28;;
36585;SDS011;22591;48.314;11.562;2023-09-18T09:39:48;6.45;;;4.90;;
36585;SDS011;22591;48.314;11.562;2023-09-18T09:42:15;7.40;;;5.82;;
36585;SDS011;22591;48.314;11.562;2023-09-18T09:44:44;6.95;;;6.15;;
36585;SDS011;22591;48.314;11.562;2023-09-18T09:47:09;7.25;;;5.13;;
36585;SDS011;22591;48.314;11.562;2023-09-18T09:49:48;6.38;;;5.57;;
36585;SDS011;22591;48.314;11.562;2023-09-18T09:52:20;6.55;;;5.93;;
36585;SDS011;22591;48.314;11.562;2023-09-18T09:54:48;9.75;;;5.65;;
36585;SDS011;22591;48.314;11.562;2023-09-18T09:57:15;6.60;;;5.70;;
36585;SDS011;22591;48.314;11.562;2023-09-18T09:59:42;5.80;;;5.30;;
36585;SDS011;22591;48.314;11.562;2023-09-18T10:02:09;8.73;;;5.97;;
36585;SDS011;22591;48.314;11.562;2023-09-18T10:04:41;9.23;;;6.30;;
36585;SDS011;22591;48.314;11.562;2023-09-18T10:07:08;7.97;;;5.60;;
36585;SDS011;22591;48.314;11.562;2023-09-18T10:09:35;10.27;;;6.15;;
36585;SDS011;22591;48.314;11.562;2023-09-18T10:12:05;6.38;;;5.47;;
36585;SDS011;22591;48.314;11.562;2023-09-18T10:14:36;8.60;;;6.00;;
36585;SDS011;22591;48.314;11.562;2023-09-18T10:17:07;9.48;;;5.45;;
36585;SDS011;22591;48.314;11.562;2023-09-18T10:22:31;8.63;;;5.53;;
36585;SDS011;22591;48.314;11.562;2023-09-18T10:25:11;5.95;;;5.10;;
36585;SDS011;22591;48.314;11.562;2023-09-18T10:27:47;14.35;;;5.95;;
36585;SDS011;22591;48.314;11.562;2023-09-18T10:32:44;7.60;;;5.10;;
36585;SDS011;22591;48.314;11.562;2023-09-18T10:35:11;5.30;;;4.80;;
36585;SDS011;22591;48.314;11.562;2023-09-18T10:37:37;10.98;;;5.35;;
36585;SDS011;22591;48.314;11.562;2023-09-18T10:40:05;9.20;;;4.60;;
36585;SDS011;22591;48.314;11.562;2023-09-18T10:42:38;11.40;;;4.80;;
36585;SDS011;22591;48.314;11.562;2023-09-18T10:45:05;8.48;;;4.32;;
36585;SDS011;22591;48.314;11.562;2023-09-18T10:47:35;9.82;;;4.68;;
36585;SDS011;22591;48.314;11.562;2023-09-18T10:50:05;6.53;;;4.00;;
36585;SDS011;22591;48.314;11.562;2023-09-18T10:52:32;11.80;;;3.92;;
36585;SDS011;22591;48.314;11.562;2023-09-18T10:55:10;8.40;;;3.67;;
36585;SDS011;22591;48.314;11.562;2023-09-18T10:57:37;7.40;;;3.65;;
36585;SDS011;22591;48.314;11.562;2023-09-18T11:00:24;8.70;;;3.60;;
36585;SDS011;22591;48.314;11.562;2023-09-18T11:02:53;14.25;;;3.42;;
36585;SDS011;22591;48.314;11.562;2023-09-18T11:05:45;9.30;;;3.47;;
36585;SDS011;22591;48.314;11.562;2023-09-18T11:08:31;11.77;;;3.60;;
36585;SDS011;22591;48.314;11.562;2023-09-18T11:11:06;8.98;;;3.88;;
36585;SDS011;22591;48.314;11.562;2023-09-18T11:13:46;6.88;;;2.95;;
36585;SDS011;22591;48.314;11.562;2023-09-18T11:18:53;16.23;;;3.15;;
36585;SDS011;22591;48.314;11.562;2023-09-18T11:21:26;11.13;;;3.05;;
36585;SDS011;22591;48.314;11.562;2023-09-18T11:23:57;6.97;;;3.17;;
36585;SDS011;22591;48.314;11.562;2023-09-18T11:26:24;10.75;;;2.95;;
36585;SDS011;22591;48.314;11.562;2023-09-18T11:28:55;5.93;;;2.88;;
36585;SDS011;22591;48.314;11.562;2023-09-18T11:31:40;11.30;;;3.10;;
36585;SDS011;22591;48.314;11.562;2023-09-18T11:34:29;11.27;;;3.25;;
36585;SDS011;22591;48.314;11.562;2023-09-18T11:37:21;7.97;;;2.97;;
36585;SDS011;22591;48.314;11.562;2023-09-18T11:39:49;7.93;;;3.10;;
36585;SDS011;22591;48.314;11.562;2023-09-18T11:42:17;11.10;;;2.85;;
36585;SDS011;22591;48.314;11.562;2023-09-18T11:44:44;7.20;;;2.78;;
36585;SDS011;22591;48.314;11.562;2023-09-18T11:47:13;7.05;;;3.55;;
36585;SDS011;22591;48.314;11.562;2023-09-18T11:52:19;8.50;;;3.47;;
36585;SDS011;22591;48.314;11.562;2023-09-18T11:54:48;8.23;;;2.88;;
36585;SDS011;22591;48.314;11.562;2023-09-18T11:57:14;9.50;;;2.75;;
36585;SDS011;22591;48.314;11.562;2023-09-18T11:59:42;8.60;;;2.80;;
36585;SDS011;22591;48.314;11.562;2023-09-18T12:02:09;6.45;;;2.58;;
36585;SDS011;22591;48.314;11.562;2023-09-18T12:04:37;11.82;;;2.60;;
36585;SDS011;22591;48.314;11.562;2023-09-18T12:07:04;5.85;;;2.65;;
36585;SDS011;22591;48.314;11.562;2023-09-18T12:09:32;2.85;;;2.33;;
36585;SDS011;22591;48.314;11.562;2023-09-18T12:11:59;7.93;;;2.35;;
36585;SDS011;22591;48.314;11.562;2023-09-18T12:14:30;4.70;;;2.42;;
36585;SDS011;22591;48.314;11.562;2023-09-18T12:16:59;7.25;;;2.35;;
36585;SDS011;22591;48.314;11.562;2023-09-18T12:19:27;2.67;;;1.88;;
36585;SDS011;22591;48.314;11.562;2023-09-18T12:21:54;3.53;;;2.28;;
36585;SDS011;22591;48.314;11.562;2023-09-18T12:24:22;6.07;;;1.95;;
36585;SDS011;22591;48.314;11.562;2023-09-18T12:26:51;4.95;;;2.15;;
36585;SDS011;22591;48.314;11.562;2023-09-18T12:29:17;4.38;;;2.10;;
36585;SDS011;22591;48.314;11.562;2023-09-18T12:31:44;2.13;;;1.70;;
36585;SDS011;22591;48.314;11.562;2023-09-18T12:34:22;9.57;;;2.15;;
36585;SDS011;22591;48.314;11.562;2023-09-18T12:36:48;4.53;;;1.63;;
36585;SDS011;22591;48.314;11.562;2023-09-18T12:39:16;5.95;;;1.83;;
36585;SDS011;22591;48.314;11.562;2023-09-18T12:41:45;7.00;;;1.75;;
36585;SDS011;22591;48.314;11.562;2023-09-18T12:44:11;3.38;;;1.88;;
36585;SDS011;22591;48.314;11.562;2023-09-18T12:46:39;3.30;;;1.83;;
36585;SDS011;22591;48.314;11.562;2023-09-18T12:49:41;4.75;;;1.17;;
36585;SDS011;22591;48.314;11.562;2023-09-18T12:52:01;3.38;;;1.33;;
36585;SDS011;22591;48.314;11.562;2023-09-18T12:54:44;2.45;;;1.38;;
36585;SDS011;22591;48.314;11.562;2023-09-18T12:57:19;1.77;;;1.65;;
36585;SDS011;22591;48.314;11.562;2023-09-18T12:59:46;3.40;;;1.40;;
36585;SDS011;22591;48.314;11.562;2023-09-18T13:02:14;2.47;;;1.52;;
36585;SDS011;22591;48.314;11.562;2023-09-18T13:04:47;3.75;;;1.75;;
36585;SDS011;22591;48.314;11.562;2023-09-18T13:07:20;1.83;;;1.20;;
36585;SDS011;22591;48.314;11.562;2023-09-18T13:10:04;3.42;;;1.60;;
36585;SDS011;22591;48.314;11.562;2023-09-18T13:12:50;4.30;;;1.48;;
36585;SDS011;22591;48.314;11.562;2023-09-18T13:15:31;3.30;;;1.30;;
36585;SDS011;22591;48.314;11.562;2023-09-18T13:18:00;3.30;;;1.52;;
36585;SDS011;22591;48.314;11.562;2023-09-18T13:20:34;1.52;;;1.42;;
36585;SDS011;22591;48.314;11.562;2023-09-18T13:23:01;2.10;;;1.27;;
36585;SDS011;22591;48.314;11.562;2023-09-18T13:25:35;4.20;;;1.60;;
36585;SDS011;22591;48.314;11.562;2023-09-18T13:28:04;1.67;;;1.30;;
36585;SDS011;22591;48.314;11.562;2023-09-18T13:30:32;1.65;;;1.27;;
36585;SDS011;22591;48.314;11.562;2023-09-18T13:33:05;2.67;;;1.50;;
36585;SDS011;22591;48.314;11.562;2023-09-18T13:35:34;3.28;;;1.67;;
36585;SDS011;22591;48.314;11.562;2023-09-18T13:38:04;1.45;;;1.35;;
36585;SDS011;22591;48.314;11.562;2023-09-18T13:40:33;3.85;;;1.38;;
36585;SDS011;22591;48.314;11.562;2023-09-18T13:43:02;4.55;;;1.92;;
36585;SDS011;22591;48.314;11.562;2023-09-18T13:45:30;3.13;;;1.83;;
36585;SDS011;22591;48.314;11.562;2023-09-18T13:47:57;2.28;;;1.88;;
36585;SDS011;22591;48.314;11.562;2023-09-18T13:50:24;3.75;;;1.70;;
36585;SDS011;22591;48.314;11.562;2023-09-18T13:52:51;3.33;;;1.60;;
36585;SDS011;22591;48.314;11.562;2023-09-18T13:55:16;2.22;;;2.00;;
36585;SDS011;22591;48.314;11.562;2023-09-18T13:57:42;3.53;;;2.10;;
36585;SDS011;22591;48.314;11.562;2023-09-18T14:00:08;4.32;;;2.20;;
36585;SDS011;22591;48.314;11.562;2023-09-18T14:02:36;2.22;;;2.00;;
36585;SDS011;22591;48.314;11.562;2023-09-18T14:05:19;5.60;;;2.22;;
36585;SDS011;22591;48.314;11.562;2023-09-18T14:07:47;4.15;;;2.50;;
36585;SDS011;22591;48.314;11.562;2023-09-18T14:10:13;2.65;;;2.20;;
36585;SDS011;22591;48.314;11.562;2023-09-18T14:12:41;2.03;;;1.77;;
36585;SDS011;22591;48.314;11.562;2023-09-18T14:15:09;3.70;;;2.33;;
36585;SDS011;22591;48.314;11.562;2023-09-18T14:17:37;3.90;;;2.00;;
36585;SDS011;22591;48.314;11.562;2023-09-18T14:20:04;5.28;;;2.50;;
36585;SDS011;22591;48.314;11.562;2023-09-18T14:22:31;3.72;;;2.35;;
36585;SDS011;22591;48.314;11.562;2023-09-18T14:24:58;3.97;;;2.20;;
36585;SDS011;22591;48.314;11.562;2023-09-18T14:27:24;2.03;;;1.83;;
36585;SDS011;22591;48.314;11.562;2023-09-18T14:29:50;2.30;;;1.85;;
36585;SDS011;22591;48.314;11.562;2023-09-18T14:32:16;3.10;;;1.83;;
36585;SDS011;22591;48.314;11.562;2023-09-18T14:34:44;2.70;;;1.88;;
36585;SDS011;22591;48.314;11.562;2023-09-18T14:37:10;4.70;;;1.83;;
36585;SDS011;22591;48.314;11.562;2023-09-18T14:39:37;3.30;;;1.40;;
36585;SDS011;22591;48.314;11.562;2023-09-18T14:42:03;1.77;;;1.65;;
36585;SDS011;22591;48.314;11.562;2023-09-18T14:44:28;4.03;;;1.60;;